Latest Weather Observations for Warrnambool

IDV60801

Issued at 11:02 am EST Tuesday 26 May 2020 (issued every 10 minutes, with the page automatically refreshed every 10 minutes)

About weather observations | Map of weather stations | Latest weather observations for VIC | Other Formats
Station Details ID: 090186 Name: WARRNAMBOOL AIRPORT NDB Lat: -38.29 Lon: 142.45 Height: 70.8 m
Data from the previous 72 hours. | See also: Recent months at Warrnambool
Date/Time
EST
Temp
°C
App
Temp
°C
Dew
Point
°C
Rel
Hum
%
Delta-T
°C
Wind Press
QNH
hPa
Press
MSL
hPa
Rain since
9am
mm
Dir  Spd
km/h
Gust
km/h
Spd
kts
Gust
kts
26/11:00am 10.8 7.1 10.3 97 0.3 NNE 20 28 11 15 1023.7 1023.8 0.0
26/10:30am 9.5 5.6 9.5 100 0.0 NE 20 24 11 13 1024.0 1024.1 0.0
26/10:18am 8.9 4.5 8.9 100 0.0 NE 22 26 12 14 1023.9 1024.0 0.0
26/10:00am 8.3 4.3 8.3 100 0.0 NE 19 26 10 14 1023.8 1023.9 0.0
26/09:50am 7.9 3.8 7.9 100 0.0 NE 19 26 10 14 1023.8 1023.9 0.0
26/09:30am 7.4 2.6 7.4 100 0.0 NE 22 28 12 15 1023.8 1023.9 0.0
26/09:00am 7.3 3.1 7.3 100 0.0 NE 19 26 10 14 1024.1 1024.2 0.0
26/08:30am 7.2 2.9 7.2 100 0.0 NE 19 26 10 14 1024.2 1024.3 0.0
26/08:00am 7.1 1.9 7.1 100 0.0 NE 24 32 13 17 1024.2 1024.3 0.0
26/07:30am 7.1 2.6 7.1 100 0.0 NE 20 26 11 14 1024.0 1024.1 0.0
26/07:16am 7.2 3.3 7.2 100 0.0 NE 17 24 9 13 1023.9 1024.0 0.0
26/07:00am 7.2 2.9 7.2 100 0.0 NE 19 24 10 13 1023.9 1024.0 0.0
26/06:48am 7.3 3.1 7.3 100 0.0 NE 19 28 10 15 1023.9 1024.0 0.0
26/06:30am 7.3 2.9 7.3 100 0.0 NE 20 30 11 16 1023.9 1024.0 0.0
26/06:00am 7.4 3.2 7.4 100 0.0 NE 19 28 10 15 1023.8 1023.9 0.0
26/05:30am 7.6 4.2 7.6 100 0.0 NE 15 22 8 12 1023.8 1023.9 0.0
26/05:00am 8.1 4.4 8.1 100 0.0 NE 17 22 9 12 1024.2 1024.3 0.0
26/04:30am 8.5 4.6 8.5 100 0.0 NE 19 24 10 13 1024.2 1024.3 0.0
26/04:00am 8.7 4.8 8.7 100 0.0 NNE 19 26 10 14 1023.8 1023.9 0.0
26/03:30am 8.8 5.3 8.8 100 0.0 NE 17 28 9 15 1023.7 1023.8 0.0
26/03:00am 8.7 4.6 8.7 100 0.0 ENE 20 33 11 18 1023.7 1023.8 0.0
26/02:30am 8.8 4.7 8.8 100 0.0 ENE 20 28 11 15 1023.8 1023.9 0.0
26/02:00am 8.5 5.3 8.5 100 0.0 ENE 15 22 8 12 1023.9 1024.0 0.0
26/01:31am 8.2 4.6 8.2 100 0.0 ENE 17 24 9 13 1023.8 1023.9 0.0
26/01:30am 8.2 4.6 8.2 100 0.0 ENE 17 24 9 13 1023.8 1023.9 0.0
26/01:00am 7.7 3.9 7.7 100 0.0 ENE 17 24 9 13 1023.6 1023.7 0.0
26/12:30am 6.5 2.5 6.5 100 0.0 NE 17 24 9 13 1023.9 1024.0 0.0
26/12:00am 6.0 3.0 6.0 100 0.0 NE 11 15 6 8 1024.3 1024.4 0.0
 
Date/Time
EST
Temp
°C
App
Temp
°C
Dew
Point
°C
Rel
Hum
%
Delta-T
°C
Wind Press
QNH
hPa
Press
MSL
hPa
Rain since
9am
mm
Dir  Spd
km/h
Gust
km/h
Spd
kts
Gust
kts
25/11:30pm 5.9 2.9 5.9 100 0.0 NE 11 15 6 8 1024.6 1024.7 0.0
25/11:00pm 4.5 1.5 4.1 97 0.2 NNE 9 11 5 6 1024.9 1025.0 0.0
25/10:30pm 6.6 4.5 5.9 95 0.3 ENE 6 9 3 5 1025.1 1025.2 0.0
25/10:00pm 7.3 5.2 6.6 95 0.3 NE 7 11 4 6 1025.0 1025.1 0.0
25/09:30pm 7.8 5.0 7.1 95 0.3 ENE 11 15 6 8 1025.0 1025.1 0.0
25/09:00pm 7.9 5.2 7.3 96 0.3 ENE 11 15 6 8 1025.5 1025.6 0.0
25/08:30pm 8.5 6.4 8.2 98 0.1 ENE 9 11 5 6 1025.5 1025.6 0.0
25/08:00pm 8.5 6.4 8.4 99 0.0 ESE 9 11 5 6 1025.1 1025.2 0.0
25/07:30pm 8.8 6.8 8.5 98 0.1 E 9 11 5 6 1024.9 1025.0 0.0
25/07:00pm 8.8 6.7 8.4 97 0.2 ESE 9 13 5 7 1024.8 1024.9 0.0
25/06:30pm 9.2 7.2 8.6 96 0.3 ESE 9 11 5 6 1024.8 1024.9 0.0
25/06:00pm 9.5 7.9 8.6 94 0.4 SE 7 9 4 5 1024.7 1024.8 0.0
25/05:30pm 10.0 7.6 8.6 91 0.7 SE 11 13 6 7 1024.7 1024.8 0.0
25/05:00pm 11.5 9.3 9.4 87 1.1 SE 11 15 6 8 1024.7 1024.8 0.0
25/04:30pm 13.2 11.3 9.1 76 2.1 ESE 9 11 5 6 1024.7 1024.8 0.0
25/04:00pm 14.1 11.7 9.9 76 2.2 ESE 13 17 7 9 1024.8 1024.9 0.0
25/03:30pm 14.4 11.8 9.2 71 2.7 E 13 17 7 9 1024.7 1024.8 0.0
25/03:00pm 14.4 11.8 9.4 72 2.6 E 13 20 7 11 1024.8 1024.9 0.0
25/02:30pm 13.4 11.1 9.1 75 2.2 E 11 17 6 9 1024.8 1024.9 0.0
25/02:00pm 13.8 10.8 9.3 74 2.3 ENE 15 24 8 13 1025.0 1025.1 0.0
25/01:30pm 13.9 10.7 9.9 77 2.1 E 17 20 9 11 1024.9 1025.0 0.0
25/01:00pm 14.2 10.5 10.0 76 2.2 NE 20 26 11 14 1025.0 1025.1 0.0
25/12:30pm 13.4 10.5 9.6 78 1.9 E 15 24 8 13 1025.1 1025.2 0.0
25/12:00pm 13.4 10.5 9.5 77 2.0 ENE 15 24 8 13 1025.5 1025.6 0.0
25/11:30am 12.9 10.1 9.9 82 1.5 ESE 15 22 8 12 1025.7 1025.8 0.0
25/11:00am 12.1 8.8 9.5 84 1.3 ESE 17 24 9 13 1025.9 1026.0 0.0
25/10:30am 11.5 9.3 9.2 86 1.2 E 11 17 6 9 1026.3 1026.4 0.0
25/10:00am 10.7 7.9 8.6 87 1.0 E 13 17 7 9 1026.0 1026.1 0.0
25/09:30am 9.8 6.8 7.9 88 0.9 E 13 17 7 9 1025.7 1025.8 0.0
25/09:00am 8.6 5.9 7.2 91 0.7 E 11 17 6 9 1025.7 1025.8 1.2
25/08:30am 7.6 4.7 6.7 94 0.4 E 11 13 6 7 1025.9 1026.0 1.2
25/08:00am 6.4 3.8 6.0 97 0.2 E 9 13 5 7 1025.7 1025.8 1.2
25/07:30am 5.6 3.1 5.0 96 0.3 E 7 9 4 5 1025.6 1025.7 1.2
25/07:00am 5.9 3.1 5.2 95 0.3 E 9 13 5 7 1025.2 1025.3 1.2
25/06:30am 5.6 3.6 4.4 92 0.5 NE 4 13 2 7 1025.0 1025.1 1.2
25/06:00am 6.2 4.7 5.2 93 0.4 E 2 11 1 6 1025.0 1025.1 1.2
25/05:30am 6.5 4.3 5.3 92 0.5 E 6 9 3 5 1025.0 1025.1 1.2
25/05:00am 6.5 3.7 5.0 90 0.7 ESE 9 11 5 6 1024.7 1024.8 1.2
25/04:30am 7.5 4.5 6.0 90 0.7 ENE 11 13 6 7 1024.9 1025.0 1.2
25/04:00am 7.8 5.3 6.7 93 0.5 ENE 9 13 5 7 1025.4 1025.5 1.2
25/03:30am 7.2 5.0 6.3 94 0.4 ENE 7 9 4 5 1026.0 1026.1 1.2
25/03:00am 7.7 5.8 6.8 94 0.4 ENE 6 7 3 4 1026.4 1026.5 1.2
25/02:30am 6.6 5.6 5.6 93 0.4 CALM 0 6 0 3 1026.2 1026.3 1.2
25/02:00am 7.6 6.3 6.2 91 0.6 ENE 2 9 1 5 1026.1 1026.2 1.2
25/01:30am 8.8 6.8 7.3 90 0.7 ENE 7 13 4 7 1026.1 1026.2 1.2
25/01:00am 9.4 7.7 8.3 93 0.5 ENE 7 11 4 6 1026.0 1026.1 1.2
25/12:30am 9.3 7.3 8.8 97 0.2 ENE 9 13 5 7 1026.1 1026.2 1.2
25/12:00am 9.4 8.0 9.4 100 0.0 E 7 11 4 6 1026.1 1026.2 1.0
 
Date/Time
EST
Temp
°C
App
Temp
°C
Dew
Point
°C
Rel
Hum
%
Delta-T
°C
Wind Press
QNH
hPa
Press
MSL
hPa
Rain since
9am
mm
Dir  Spd
km/h
Gust
km/h
Spd
kts
Gust
kts
24/11:30pm 9.4 7.2 9.4 100 0.0 E 11 15 6 8 1026.0 1026.1 1.0
24/11:00pm 9.6 8.2 9.6 100 0.0 ESE 7 11 4 6 1025.9 1026.0 1.0
24/10:30pm 9.8 8.7 9.8 100 0.0 ESE 6 9 3 5 1025.7 1025.8 1.0
24/10:00pm 9.9 9.9 9.9 100 0.0 CALM 0 0 0 0 1025.7 1025.8 1.0
24/09:30pm 9.8 8.7 9.8 100 0.0 SSE 6 7 3 4 1025.5 1025.6 1.0
24/09:00pm 9.9 8.6 9.9 100 0.0 SE 7 9 4 5 1025.2 1025.3 1.0
24/08:56pm 10.0 8.7 10.0 100 0.0 SE 7 11 4 6 1025.1 1025.2 1.0
24/08:47pm 10.1 8.5 10.1 100 0.0 SE 9 13 5 7 1025.1 1025.2 1.0
24/08:30pm 10.4 8.1 10.4 100 0.0 SE 13 17 7 9 1024.9 1025.0 1.0
24/08:20pm 10.3 8.3 10.3 100 0.0 SE 11 17 6 9 1024.8 1024.9 0.8
24/08:18pm 10.3 8.3 10.3 100 0.0 SE 11 17 6 9 1024.8 1024.9 0.8
24/08:00pm 10.4 8.5 10.4 100 0.0 SSE 11 15 6 8 1025.0 1025.1 0.6
24/07:49pm 10.3 8.0 10.3 100 0.0 SE 13 17 7 9 1024.9 1025.0 0.6
24/07:43pm 10.2 8.2 10.2 100 0.0 SSE 11 17 6 9 1024.9 1025.0 0.6
24/07:30pm 9.8 7.3 9.8 100 0.0 S 13 17 7 9 1024.9 1025.0 0.4
24/07:26pm 10.0 7.6 10.0 100 0.0 S 13 17 7 9 1024.9 1025.0 0.4
24/07:00pm 9.8 7.3 9.8 100 0.0 S 13 13 7 7 1024.8 1024.9 0.4
24/06:57pm 9.8 7.3 9.8 100 0.0 S 13 17 7 9 1024.8 1024.9 0.4
24/06:50pm 9.8 6.9 9.8 100 0.0 S 15 19 8 10 1024.8 1024.9 0.4
24/06:32pm 10.1 7.3 10.1 100 0.0 S 15 19 8 10 1024.6 1024.7 0.4
24/06:30pm 10.1 7.7 10.1 100 0.0 S 13 19 7 10 1024.7 1024.8 0.4
24/06:12pm 9.8 6.9 9.8 100 0.0 S 15 19 8 10 1024.5 1024.6 0.2
24/06:00pm 10.2 7.1 10.2 100 0.0 S 17 24 9 13 1024.4 1024.5 0.2
24/05:56pm 10.3 7.6 10.3 100 0.0 S 15 24 8 13 1024.4 1024.5 0.2
24/05:30pm 9.7 7.2 9.7 100 0.0 S 13 20 7 11 1024.2 1024.3 0.2
24/05:00pm 9.7 7.5 9.4 98 0.1 S 11 13 6 7 1024.2 1024.3 0.2
24/04:30pm 10.3 7.1 9.8 97 0.3 S 17 22 9 12 1024.2 1024.3 0.2
24/04:10pm 11.7 7.8 10.8 94 0.5 S 22 32 12 17 1024.3 1024.4 0.0
24/04:00pm 11.1 7.1 10.6 97 0.3 SSW 22 30 12 16 1024.3 1024.4 0.0
24/03:30pm 10.8 6.3 10.2 96 0.3 S 24 35 13 19 1024.4 1024.5 0.0
24/03:24pm 10.8 5.9 9.9 94 0.5 S 26 35 14 19 1024.5 1024.6 0.0
24/03:00pm 10.9 6.1 10.3 96 0.3 SSW 26 33 14 18 1024.5 1024.6 0.0
24/02:59pm 11.1 6.4 10.6 97 0.3 SSW 26 33 14 18 1024.5 1024.6 0.0
24/02:57pm 11.2 6.5 10.7 97 0.3 S 26 33 14 18 1024.5 1024.6 0.0
24/02:47pm 10.4 4.7 9.8 96 0.3 SSW 30 41 16 22 1024.5 1024.6 0.0
24/02:30pm 10.9 6.2 10.6 98 0.2 SSW 26 35 14 19 1024.6 1024.7 0.0
24/02:21pm 10.5 5.7 10.2 98 0.2 SSW 26 35 14 19 1024.6 1024.7 0.0
24/02:06pm 10.8 6.0 10.2 96 0.3 SSW 26 41 14 22 1024.6 1024.7 0.0
24/02:02pm 10.8 5.1 9.7 93 0.6 SSW 30 41 16 22 1024.7 1024.8 0.0
24/02:00pm 11.0 5.2 9.6 91 0.7 SSW 30 41 16 22 1024.7 1024.8 0.0
24/01:30pm 11.2 6.3 9.8 91 0.7 SSW 26 33 14 18 1024.8 1024.9 0.0
24/01:00pm 11.4 7.0 8.8 84 1.3 S 22 32 12 17 1024.8 1024.9 0.0
24/12:30pm 10.6 6.1 8.5 87 1.0 S 22 28 12 15 1025.1 1025.2 0.0
24/12:00pm 10.7 5.7 7.9 83 1.4 S 24 32 13 17 1025.2 1025.3 0.0
24/11:30am 10.8 5.8 8.0 83 1.4 S 24 30 13 16 1025.2 1025.3 0.0
24/11:00am 10.9 6.3 9.5 91 0.7 S 24 32 13 17 1025.0 1025.1 0.0
24/10:50am 10.6 6.4 9.8 95 0.4 S 22 32 12 17 1025.0 1025.1 0.0
24/10:30am 9.9 4.4 9.0 94 0.4 S 28 37 15 20 1025.0 1025.1 0.0
24/10:29am 9.8 4.2 8.7 93 0.5 S 28 37 15 20 1025.0 1025.1 0.0
24/10:00am 10.5 5.6 8.6 88 0.9 S 24 32 13 17 1024.8 1024.9 0.0
24/09:30am 10.4 5.0 8.2 86 1.1 S 26 33 14 18 1024.6 1024.7 0.0
24/09:00am 9.9 5.5 9.0 94 0.4 SSE 22 30 12 16 1024.4 1024.5 1.8
24/08:30am 10.4 5.6 7.3 81 1.5 S 22 28 12 15 1024.2 1024.3 1.8
24/08:00am 10.2 5.8 6.7 79 1.6 S 19 26 10 14 1023.9 1024.0 1.8
24/07:30am 10.3 5.1 7.2 81 1.5 S 24 32 13 17 1023.6 1023.7 1.8
24/07:00am 10.1 6.2 8.7 91 0.7 S 19 24 10 13 1023.3 1023.4 1.8
24/06:30am 9.2 7.0 9.2 100 0.0 S 11 26 6 14 1022.9 1023.0 1.8
24/06:00am 8.8 6.1 8.8 100 0.0 S 13 17 7 9 1022.8 1022.9 1.6
24/05:46am 9.2 5.2 9.2 100 0.0 SSW 20 26 11 14 1022.7 1022.8 1.6
24/05:30am 9.2 4.8 9.1 99 0.0 S 22 33 12 18 1022.7 1022.8 1.6
24/05:28am 9.4 5.5 9.3 99 0.0 S 20 33 11 18 1022.7 1022.8 1.6
24/05:00am 9.4 5.9 8.9 97 0.2 SW 17 20 9 11 1022.3 1022.4 1.4
24/04:30am 10.8 5.9 6.9 77 1.9 S 22 32 12 17 1022.3 1022.4 1.4
24/04:00am 10.9 5.6 7.0 77 1.9 S 24 37 13 20 1022.1 1022.2 1.4
24/03:30am 10.9 5.3 7.2 78 1.8 S 26 35 14 19 1022.1 1022.2 1.4
24/03:00am 10.5 6.0 6.8 78 1.7 SSW 20 26 11 14 1022.2 1022.3 1.4
24/02:30am 10.6 5.3 6.7 77 1.8 S 24 35 13 19 1022.4 1022.5 1.4
24/02:00am 10.9 5.7 7.2 78 1.8 SSW 24 33 13 18 1022.2 1022.3 1.4
24/01:30am 11.0 5.9 7.7 80 1.6 SSW 24 33 13 18 1022.1 1022.2 1.4
24/01:00am 11.0 7.1 8.8 86 1.1 S 19 24 10 13 1022.0 1022.1 1.4
24/12:30am 11.0 6.0 7.9 81 1.5 SSW 24 30 13 16 1022.1 1022.2 1.4
24/12:00am 11.1 5.4 8.3 83 1.4 S 28 39 15 21 1022.1 1022.2 1.4
 
Date/Time
EST
Temp
°C
App
Temp
°C
Dew
Point
°C
Rel
Hum
%
Delta-T
°C
Wind Press
QNH
hPa
Press
MSL
hPa
Rain since
9am
mm
Dir  Spd
km/h
Gust
km/h
Spd
kts
Gust
kts
23/11:30pm 11.0 7.7 9.4 90 0.8 SSE 17 24 9 13 1022.0 1022.1 1.4
23/11:00pm 10.9 6.7 9.7 92 0.6 S 22 28 12 15 1022.0 1022.1 1.4
23/10:30pm 10.6 7.0 10.6 100 0.0 SSW 20 26 11 14 1022.1 1022.2 1.4
23/10:00pm 10.2 6.1 10.2 100 0.0 SSW 22 26 12 14 1022.0 1022.1 1.4
23/09:54pm 10.1 5.6 10.1 100 0.0 SSW 24 30 13 16 1022.1 1022.2 1.4
23/09:35pm 10.5 5.4 10.5 100 0.0 S 28 37 15 20 1022.1 1022.2 1.4
23/09:30pm 10.3 5.9 10.3 100 0.0 S 24 33 13 18 1022.0 1022.1 1.4
23/09:00pm 10.1 6.4 9.5 96 0.3 SSW 19 26 10 14 1021.7 1021.8 1.4
23/08:30pm 10.9 7.0 9.3 90 0.8 S 20 26 11 14 1021.4 1021.4 1.4
23/08:00pm 11.4 7.0 9.0 85 1.2 S 22 30 12 16 1021.2 1021.2 1.4
23/07:30pm 11.3 6.6 9.2 87 1.1 S 24 32 13 17 1021.0 1021.0 1.4
23/07:00pm 11.2 6.9 9.5 89 0.9 SSW 22 30 12 16 1020.7 1020.7 1.4
23/06:30pm 11.3 6.8 10.2 93 0.6 S 24 32 13 17 1020.5 1020.5 1.4
23/06:00pm 11.0 6.8 11.0 100 0.0 S 24 33 13 18 1020.2 1020.2 1.4
23/05:30pm 11.3 6.7 11.0 98 0.2 SSW 26 32 14 17 1019.9 1019.9 1.4
23/05:00pm 11.4 6.9 11.4 100 0.0 SSW 26 35 14 19 1019.6 1019.6 1.4
23/04:51pm 11.6 7.9 11.6 100 0.0 SSW 22 33 12 18 1019.6 1019.6 1.4
23/04:50pm 11.6 7.9 11.6 100 0.0 SSW 22 30 12 16 1019.6 1019.6 1.4
23/04:33pm 11.6 6.8 11.6 100 0.0 S 28 41 15 22 1019.5 1019.5 1.4
23/04:31pm 11.8 7.0 11.8 100 0.0 S 28 37 15 20 1019.5 1019.5 1.2
23/04:30pm 11.8 7.0 11.8 100 0.0 S 28 37 15 20 1019.5 1019.5 1.2
23/04:27pm 11.8 6.7 11.8 100 0.0 S 30 37 16 20 1019.5 1019.5 1.2
23/04:14pm 12.0 7.7 12.0 100 0.0 S 26 33 14 18 1019.5 1019.5 1.2
23/04:00pm 11.9 6.4 11.9 100 0.0 S 32 39 17 21 1019.5 1019.5 1.2
23/03:43pm 12.1 7.4 12.1 100 0.0 SSW 28 41 15 22 1019.4 1019.4 1.0
23/03:41pm 12.2 8.3 12.2 100 0.0 SSW 24 32 13 17 1019.4 1019.4 1.0
23/03:30pm 12.2 7.6 12.2 100 0.0 S 28 33 15 18 1019.4 1019.4 1.0
23/03:20pm 12.6 7.3 12.4 99 0.1 SSW 32 43 17 23 1019.4 1019.4 1.0
23/03:10pm 13.4 9.3 12.8 96 0.3 SSW 26 33 14 18 1019.2 1019.2 1.0
23/03:00pm 13.2 9.1 12.7 97 0.3 S 26 32 14 17 1019.3 1019.3 1.0
23/02:30pm 13.0 8.5 12.5 97 0.3 SSW 28 33 15 18 1019.3 1019.3 1.0
23/02:00pm 12.6 8.0 12.4 99 0.1 SSW 28 35 15 19 1019.4 1019.4 1.0
23/01:38pm 12.6 8.1 12.6 100 0.0 SSW 28 37 15 20 1019.6 1019.6 1.0
23/01:30pm 12.1 6.7 12.1 100 0.0 SSW 32 39 17 21 1019.6 1019.6 1.0
23/01:21pm 12.3 6.9 12.3 100 0.0 SSW 32 43 17 23 1019.7 1019.7 0.8
23/01:06pm 12.4 8.2 12.4 100 0.0 S 26 33 14 18 1019.7 1019.7 0.8
23/01:04pm 12.5 8.3 12.5 100 0.0 S 26 33 14 18 1019.8 1019.8 0.8
23/01:00pm 12.3 7.7 12.3 100 0.0 S 28 33 15 18 1019.8 1019.8 0.8
23/12:56pm 12.7 8.6 12.7 100 0.0 S 26 32 14 17 1019.8 1019.8 0.8
23/12:51pm 12.4 8.2 12.4 100 0.0 SSW 26 33 14 18 1019.8 1019.8 0.8
23/12:41pm 12.6 7.3 12.6 100 0.0 SSW 32 41 17 22 1020.0 1020.0 0.8
23/12:40pm 12.5 7.2 12.5 100 0.0 SSW 32 41 17 22 1020.0 1020.0 0.8
23/12:31pm 13.0 8.6 13.0 100 0.0 S 28 33 15 18 1020.0 1020.0 0.8
23/12:30pm 12.8 8.4 12.8 100 0.0 S 28 33 15 18 1020.0 1020.0 0.8
23/12:22pm 12.7 9.0 12.7 100 0.0 S 24 32 13 17 1020.2 1020.2 0.8
23/12:12pm 12.4 7.4 12.2 99 0.1 S 30 39 16 21 1020.4 1020.4 0.8
23/12:09pm 12.8 7.9 12.5 98 0.2 S 30 39 16 21 1020.4 1020.4 0.8
23/12:06pm 12.9 8.3 12.4 97 0.3 S 28 35 15 19 1020.4 1020.4 0.8
23/12:00pm 12.9 8.4 12.6 98 0.2 SSW 28 33 15 18 1020.4 1020.4 0.8
23/11:30am 12.9 7.7 12.7 99 0.1 SSW 32 37 17 20 1020.6 1020.6 0.8
23/11:24am 13.0 7.9 13.0 100 0.0 SSW 32 37 17 20 1020.7 1020.7 0.8
23/11:17am 12.6 7.7 12.6 100 0.0 SSW 30 37 16 20 1020.7 1020.7 0.8
23/11:16am 12.6 7.7 12.6 100 0.0 SSW 30 37 16 20 1020.7 1020.7 0.8
23/11:07am 12.3 7.3 12.3 100 0.0 SSW 30 37 16 20 1020.7 1020.7 0.8
23/11:02am 13.1 8.8 13.1 100 0.0 SSW 28 35 15 19 1020.7 1020.7 0.8

Other formats

Comma delimited format used in spreadsheet applications
http://www.bom.gov.au/fwo/IDV60801/IDV60801.94837.axf

JavaScript Object Notation format (JSON) in row-major order
http://www.bom.gov.au/fwo/IDV60801/IDV60801.94837.json

Data quality

Most of these data are generated automatically and are frequently updated. Quality checks on data are not normally performed. It is possible for incorrect values to appear. Refer to information at About Latest Weather Observations and please check the disclaimer before using these data.